createdAt,value
2017-06-28T00:01:36.799Z,92.40
2017-06-28T00:04:04.307Z,92.10
2017-06-28T00:06:31.840Z,92.10
2017-06-28T00:08:59.342Z,92.10
2017-06-28T00:11:26.838Z,92.00
2017-06-28T00:13:55.127Z,91.90
2017-06-28T00:16:22.646Z,91.90
2017-06-28T00:18:50.163Z,91.90
2017-06-28T00:21:17.663Z,91.80
2017-06-28T00:23:45.183Z,91.70
2017-06-28T00:26:12.688Z,91.70
2017-06-28T00:28:40.960Z,91.80
2017-06-28T00:31:08.476Z,91.80
2017-06-28T00:33:35.979Z,92.00
2017-06-28T00:36:04.266Z,92.10
2017-06-28T00:38:32.541Z,92.10
2017-06-28T00:41:00.085Z,92.00
2017-06-28T00:43:27.599Z,92.10
2017-06-28T00:45:55.103Z,92.10
2017-06-28T00:48:22.624Z,92.10
2017-06-28T00:50:50.131Z,92.10
2017-06-28T00:53:17.687Z,92.10
2017-06-28T00:55:45.951Z,92.00
2017-06-28T00:58:13.474Z,92.00
2017-06-28T01:00:40.976Z,91.80
2017-06-28T01:03:09.246Z,92.20
2017-06-28T01:05:36.767Z,91.90
2017-06-28T01:08:04.267Z,91.90
2017-06-28T01:10:32.560Z,92.20
2017-06-28T01:13:00.147Z,91.90
2017-06-28T01:15:28.474Z,91.90
2017-06-28T01:17:55.975Z,92.00
2017-06-28T01:20:23.475Z,92.00
2017-06-28T01:22:50.991Z,92.30
2017-06-28T01:25:18.499Z,92.00
2017-06-28T01:27:46.015Z,92.00
2017-06-28T01:30:13.519Z,92.10
2017-06-28T01:32:41.051Z,92.20
2017-06-28T01:35:08.573Z,92.00
2017-06-28T01:37:36.093Z,92.10
2017-06-28T01:40:03.624Z,91.80
2017-06-28T01:42:31.118Z,91.90
2017-06-28T01:44:58.634Z,91.90
2017-06-28T01:47:26.140Z,92.10
2017-06-28T01:49:53.659Z,92.30
2017-06-28T01:52:21.162Z,92.50
2017-06-28T01:54:48.663Z,92.20
2017-06-28T01:57:16.186Z,91.90
2017-06-28T01:59:43.687Z,91.60
2017-06-28T02:02:11.207Z,91.40
2017-06-28T02:04:38.715Z,91.30
2017-06-28T02:07:06.247Z,91.30
2017-06-28T02:09:33.747Z,91.20
2017-06-28T02:12:01.247Z,91.20
2017-06-28T02:14:28.771Z,91.10
2017-06-28T02:16:56.277Z,91.10
2017-06-28T02:19:23.799Z,91.20
2017-06-28T02:21:51.308Z,91.20
2017-06-28T02:24:18.835Z,91.20
2017-06-28T02:26:46.335Z,91.20
2017-06-28T02:29:13.840Z,91.20
2017-06-28T02:31:41.367Z,91.20
2017-06-28T02:34:08.867Z,91.20
2017-06-28T02:36:36.395Z,91.20
2017-06-28T02:39:03.906Z,91.00
2017-06-28T02:41:31.443Z,91.10
2017-06-28T02:43:58.947Z,91.20
2017-06-28T02:46:26.452Z,91.50
2017-06-28T02:48:54.731Z,91.90
2017-06-28T02:51:22.236Z,91.90
2017-06-28T02:53:49.754Z,92.10
2017-06-28T02:56:17.250Z,92.10
2017-06-28T02:58:44.776Z,92.10
2017-06-28T03:01:12.279Z,92.00
2017-06-28T03:03:39.779Z,91.90
2017-06-28T03:06:07.316Z,92.00
2017-06-28T03:08:35.636Z,91.70
2017-06-28T03:11:03.171Z,91.70
2017-06-28T03:13:30.693Z,91.50
2017-06-28T03:15:58.231Z,91.30
2017-06-28T03:18:25.727Z,91.20
2017-06-28T03:20:53.999Z,91.40
2017-06-28T03:23:21.524Z,91.30
2017-06-28T03:25:49.032Z,91.30
2017-06-28T03:28:16.555Z,91.30
2017-06-28T03:30:44.065Z,91.10
2017-06-28T03:33:11.599Z,91.00
2017-06-28T03:35:39.289Z,90.80
2017-06-28T03:38:06.807Z,90.60
2017-06-28T03:40:34.333Z,90.40
2017-06-28T03:43:01.840Z,90.10
2017-06-28T03:45:29.359Z,90.00
2017-06-28T03:47:56.863Z,90.00
2017-06-28T03:50:24.403Z,89.80
2017-06-28T03:52:51.907Z,89.60
2017-06-28T03:55:19.406Z,89.60
2017-06-28T03:57:46.926Z,89.20
2017-06-28T04:00:14.431Z,88.40
2017-06-28T04:02:41.957Z,88.20
2017-06-28T04:05:09.468Z,87.40
2017-06-28T04:07:37.006Z,82.80
2017-06-28T04:10:04.507Z,84.60
2017-06-28T04:12:32.011Z,84.00
2017-06-28T04:14:59.528Z,84.00
2017-06-28T04:17:27.032Z,84.00
2017-06-28T04:19:54.554Z,83.90
2017-06-28T04:22:22.057Z,83.70
2017-06-28T04:24:49.575Z,83.70
2017-06-28T04:27:17.076Z,83.40
2017-06-28T04:29:44.576Z,82.40
2017-06-28T04:32:12.100Z,82.20
2017-06-28T04:34:39.610Z,82.20
2017-06-28T04:37:07.136Z,82.40
2017-06-28T04:39:34.647Z,82.10
2017-06-28T04:42:02.192Z,81.40
2017-06-28T04:44:29.703Z,82.30
2017-06-28T04:46:57.208Z,82.50
2017-06-28T04:49:24.732Z,83.30
2017-06-28T04:51:52.230Z,83.40
2017-06-28T04:54:19.756Z,83.70
2017-06-28T04:56:47.260Z,83.50
2017-06-28T04:59:14.779Z,83.60
2017-06-28T05:01:42.284Z,83.70
2017-06-28T05:04:09.790Z,83.40
2017-06-28T05:06:37.308Z,83.40
2017-06-28T05:09:05.574Z,83.10
2017-06-28T05:11:33.093Z,83.20
2017-06-28T05:14:00.591Z,83.70
2017-06-28T05:16:28.113Z,83.60
2017-06-28T05:18:55.617Z,84.20
2017-06-28T05:21:23.891Z,84.30
2017-06-28T05:23:51.411Z,84.10
2017-06-28T05:26:18.919Z,83.40
2017-06-28T05:28:46.453Z,83.30
2017-06-28T05:31:13.955Z,83.90
2017-06-28T05:33:41.479Z,83.90
2017-06-28T05:36:08.983Z,83.90
2017-06-28T05:38:36.516Z,84.30
2017-06-28T05:41:04.020Z,85.10
2017-06-28T05:43:31.527Z,86.20
2017-06-28T05:45:59.047Z,86.40
2017-06-28T05:48:26.556Z,86.10
2017-06-28T05:50:54.071Z,86.90
2017-06-28T05:53:21.570Z,87.00
2017-06-28T05:55:49.869Z,87.00
2017-06-28T05:58:17.371Z,87.00
2017-06-28T06:00:44.879Z,87.10
2017-06-28T06:03:12.404Z,85.70
2017-06-28T06:05:40.685Z,86.90
2017-06-28T06:08:08.242Z,86.90
2017-06-28T06:10:35.760Z,85.30
2017-06-28T06:13:03.307Z,85.30
2017-06-28T06:15:30.814Z,84.40
2017-06-28T06:17:59.074Z,83.10
2017-06-28T06:20:26.602Z,83.10
2017-06-28T06:22:54.106Z,82.00
2017-06-28T06:25:21.631Z,82.40
2017-06-28T06:27:49.140Z,83.30
2017-06-28T06:30:16.679Z,81.50
2017-06-28T06:32:44.951Z,82.70
2017-06-28T06:35:12.451Z,81.90
2017-06-28T06:37:39.972Z,80.10
2017-06-28T06:40:08.244Z,79.10
2017-06-28T06:42:35.763Z,78.30
2017-06-28T06:45:03.263Z,78.70
2017-06-28T06:47:30.787Z,78.10
2017-06-28T06:49:58.288Z,74.30
2017-06-28T06:52:25.782Z,75.40
2017-06-28T06:54:53.299Z,74.00
2017-06-28T06:57:20.807Z,74.50
2017-06-28T06:59:48.323Z,72.30
2017-06-28T07:02:15.824Z,70.90
2017-06-28T07:04:43.360Z,70.00
2017-06-28T07:07:10.871Z,68.90
2017-06-28T07:09:38.370Z,67.60
2017-06-28T07:12:05.891Z,69.30
2017-06-28T07:14:33.383Z,67.70
2017-06-28T07:17:00.907Z,66.40
2017-06-28T07:19:28.407Z,66.90
2017-06-28T07:21:55.931Z,65.70
2017-06-28T07:24:23.429Z,66.30
2017-06-28T07:26:50.930Z,67.20
2017-06-28T07:29:18.444Z,64.80
2017-06-28T07:31:45.947Z,64.00
2017-06-28T07:34:13.460Z,62.30
2017-06-28T07:36:40.997Z,64.00
2017-06-28T07:39:09.295Z,65.20
2017-06-28T07:41:36.807Z,65.30
2017-06-28T07:44:04.316Z,64.30
2017-06-28T07:46:31.843Z,63.80
2017-06-28T07:49:00.111Z,61.10
2017-06-28T07:51:28.075Z,61.00
2017-06-28T07:53:55.583Z,61.50
2017-06-28T07:56:23.111Z,62.70
2017-06-28T07:58:51.388Z,60.90
2017-06-28T08:01:19.656Z,58.90
2017-06-28T08:03:47.946Z,59.70
2017-06-28T08:06:15.447Z,59.70
2017-06-28T08:08:42.968Z,59.60
2017-06-28T08:11:10.475Z,60.10
2017-06-28T08:13:37.991Z,60.80
2017-06-28T08:16:05.493Z,59.00
2017-06-28T08:18:32.991Z,58.70
2017-06-28T08:21:01.277Z,56.70
2017-06-28T08:23:28.778Z,56.70
2017-06-28T08:25:56.295Z,56.70
2017-06-28T08:28:23.790Z,57.40
2017-06-28T08:30:51.307Z,57.00
2017-06-28T08:33:18.802Z,55.90
2017-06-28T08:35:46.308Z,56.00
2017-06-28T08:38:13.827Z,57.60
2017-06-28T08:40:41.330Z,57.10
2017-06-28T08:43:08.851Z,59.50
2017-06-28T08:45:36.354Z,60.90
2017-06-28T08:48:03.881Z,64.50
2017-06-28T08:50:31.382Z,67.50
2017-06-28T08:52:58.886Z,67.00
2017-06-28T08:55:26.405Z,67.70
2017-06-28T08:57:53.907Z,68.40
2017-06-28T09:00:21.423Z,69.70
2017-06-28T09:02:48.924Z,70.40
2017-06-28T09:05:16.451Z,72.20
2017-06-28T09:07:44.207Z,71.40
2017-06-28T09:10:11.716Z,73.40
2017-06-28T09:12:39.245Z,74.30
2017-06-28T09:15:06.748Z,75.50
2017-06-28T09:17:34.264Z,75.30
2017-06-28T09:20:01.759Z,76.00
2017-06-28T09:22:29.282Z,77.90
2017-06-28T09:24:56.779Z,76.70
2017-06-28T09:27:25.043Z,76.60
2017-06-28T09:29:53.323Z,75.50
2017-06-28T09:32:20.890Z,75.40
2017-06-28T09:34:48.414Z,75.80
2017-06-28T09:37:15.915Z,75.00
2017-06-28T09:39:43.436Z,74.10
2017-06-28T09:42:10.934Z,72.40
2017-06-28T09:44:38.436Z,71.80
2017-06-28T09:47:05.951Z,70.80
2017-06-28T09:49:33.456Z,71.10
2017-06-28T09:52:00.975Z,68.20
2017-06-28T09:54:28.471Z,67.60
2017-06-28T09:56:56.004Z,68.20
2017-06-28T09:59:23.507Z,68.10
2017-06-28T10:01:51.003Z,66.70
2017-06-28T10:04:18.519Z,67.10
2017-06-28T10:06:46.019Z,67.30
2017-06-28T10:09:13.535Z,68.90
2017-06-28T10:11:41.030Z,66.90
2017-06-28T10:14:08.574Z,63.00
2017-06-28T10:16:36.071Z,61.50
2017-06-28T10:19:03.575Z,61.60
2017-06-28T10:21:31.099Z,62.30
2017-06-28T10:23:58.594Z,62.30
2017-06-28T10:26:26.111Z,62.30
2017-06-28T10:28:53.608Z,61.60
2017-06-28T10:31:21.127Z,60.50
2017-06-28T10:33:48.627Z,60.90
2017-06-28T10:36:16.129Z,62.30
2017-06-28T10:38:43.731Z,62.10
2017-06-28T10:41:11.247Z,59.20
2017-06-28T10:43:38.767Z,60.50
2017-06-28T10:46:06.267Z,59.20
2017-06-28T10:48:33.799Z,60.70
2017-06-28T10:51:02.059Z,60.90
2017-06-28T10:53:30.318Z,59.30
2017-06-28T10:55:57.838Z,58.90
2017-06-28T10:58:25.348Z,60.80
2017-06-28T11:00:52.866Z,59.90
2017-06-28T11:03:20.363Z,60.50
2017-06-28T11:05:47.884Z,60.50
2017-06-28T11:08:15.678Z,60.80
2017-06-28T11:10:43.179Z,58.60
2017-06-28T11:13:10.699Z,57.20
2017-06-28T11:15:38.211Z,57.60
2017-06-28T11:18:05.731Z,57.20
2017-06-28T11:20:33.995Z,57.50
2017-06-28T11:23:01.530Z,57.40
2017-06-28T11:25:29.034Z,52.70
2017-06-28T11:27:56.536Z,54.10
2017-06-28T11:30:24.058Z,54.40
2017-06-28T11:32:51.555Z,55.70
2017-06-28T11:35:19.070Z,57.40
2017-06-28T11:37:46.576Z,54.00
2017-06-28T11:40:14.103Z,55.10
2017-06-28T11:42:41.615Z,57.20
2017-06-28T11:45:09.116Z,53.10
2017-06-28T11:47:36.635Z,52.90
2017-06-28T11:50:04.139Z,56.30
2017-06-28T11:52:31.655Z,56.30
2017-06-28T11:54:59.151Z,54.00
2017-06-28T11:57:26.675Z,51.00
2017-06-28T11:59:54.934Z,52.40
2017-06-28T12:02:22.432Z,52.40
2017-06-28T12:04:49.954Z,52.90
2017-06-28T12:07:17.472Z,54.20
2017-06-28T12:09:44.996Z,53.20
2017-06-28T12:12:12.542Z,53.10
2017-06-28T12:14:40.853Z,52.10
2017-06-28T12:17:08.767Z,52.10
2017-06-28T12:19:36.274Z,53.10
2017-06-28T12:22:03.794Z,52.40
2017-06-28T12:24:31.297Z,52.20
2017-06-28T12:26:58.811Z,49.50
2017-06-28T12:29:26.307Z,51.50
2017-06-28T12:31:53.828Z,50.70
2017-06-28T12:34:21.325Z,47.90
2017-06-28T12:36:48.822Z,50.20
2017-06-28T12:39:16.331Z,50.20
2017-06-28T12:41:43.840Z,47.80
2017-06-28T12:44:11.352Z,48.40
2017-06-28T12:46:38.855Z,52.20
2017-06-28T12:49:06.387Z,48.90
2017-06-28T12:51:33.884Z,47.60
2017-06-28T12:54:01.393Z,47.80
2017-06-28T12:56:28.909Z,49.00
2017-06-28T12:58:57.183Z,52.00
2017-06-28T13:01:24.704Z,51.60
2017-06-28T13:03:52.204Z,50.90
2017-06-28T13:06:20.507Z,51.80
2017-06-28T13:08:48.008Z,51.80
2017-06-28T13:11:15.519Z,51.90
2017-06-28T13:13:43.038Z,52.80
2017-06-28T13:16:10.544Z,53.30
2017-06-28T13:18:38.071Z,51.70
2017-06-28T13:21:06.392Z,52.60
2017-06-28T13:23:33.896Z,52.40
2017-06-28T13:26:01.407Z,53.90
2017-06-28T13:28:28.907Z,56.00
2017-06-28T13:30:56.427Z,58.20
2017-06-28T13:33:23.936Z,58.70
2017-06-28T13:35:51.431Z,59.50
2017-06-28T13:38:18.973Z,60.60
2017-06-28T13:40:46.495Z,59.50
2017-06-28T13:43:14.030Z,60.30
2017-06-28T13:45:41.526Z,60.00
2017-06-28T13:48:09.027Z,59.50
2017-06-28T13:50:36.542Z,61.40
2017-06-28T13:53:09.943Z,59.50
2017-06-28T13:55:37.472Z,58.80
2017-06-28T13:58:04.972Z,58.80
2017-06-28T14:00:33.245Z,58.60
2017-06-28T14:03:01.534Z,57.40
2017-06-28T14:05:29.031Z,57.40
2017-06-28T14:07:56.555Z,58.70
2017-06-28T14:10:24.058Z,58.70
2017-06-28T14:12:51.573Z,59.20
2017-06-28T14:15:19.086Z,59.80
2017-06-28T14:17:46.584Z,58.90
2017-06-28T14:20:14.103Z,59.30
2017-06-28T14:22:41.606Z,58.70
2017-06-28T14:25:09.135Z,59.50
2017-06-28T14:27:36.636Z,58.40
2017-06-28T14:30:04.139Z,59.00
2017-06-28T14:32:31.659Z,58.90
2017-06-28T14:34:59.167Z,59.00
2017-06-28T14:37:26.683Z,58.70
2017-06-28T14:39:54.179Z,60.20
2017-06-28T14:42:21.694Z,59.00
2017-06-28T14:44:49.191Z,59.00
2017-06-28T14:47:16.711Z,58.30
2017-06-28T14:49:44.206Z,59.10
2017-06-28T14:52:11.703Z,60.50
2017-06-28T14:54:39.219Z,61.70
2017-06-28T14:57:06.715Z,62.10
2017-06-28T14:59:34.238Z,63.10
2017-06-28T15:02:01.735Z,60.80
2017-06-28T15:04:29.253Z,62.70
2017-06-28T15:06:56.804Z,62.50
2017-06-28T15:09:25.103Z,63.20
2017-06-28T15:11:53.427Z,62.20
2017-06-28T15:14:20.937Z,62.20
2017-06-28T15:16:49.226Z,63.10
2017-06-28T15:19:17.495Z,63.40
2017-06-28T15:21:45.023Z,63.20
2017-06-28T15:24:12.523Z,63.20
2017-06-28T15:26:40.022Z,63.30
2017-06-28T15:29:07.564Z,63.50
2017-06-28T15:31:35.067Z,63.70
2017-06-28T15:34:02.579Z,63.50
2017-06-28T15:36:30.079Z,64.60
2017-06-28T15:38:57.602Z,64.70
2017-06-28T15:41:25.104Z,65.00
2017-06-28T15:43:52.603Z,65.00
2017-06-28T15:46:20.129Z,65.70
2017-06-28T15:48:47.732Z,65.60
2017-06-28T15:51:15.251Z,65.60
2017-06-28T15:54:09.083Z,64.60
2017-06-28T15:56:46.470Z,64.60
2017-06-28T15:59:13.969Z,64.80
2017-06-28T16:01:41.495Z,65.40
2017-06-28T16:04:08.990Z,65.00
2017-06-28T16:06:37.250Z,68.10
2017-06-28T16:09:04.763Z,68.00
2017-06-28T16:11:32.263Z,66.40
2017-06-28T16:13:59.775Z,66.60
2017-06-28T16:16:27.276Z,67.70
2017-06-28T16:18:54.795Z,68.20
2017-06-28T16:21:22.299Z,69.30
2017-06-28T16:23:49.799Z,69.30
2017-06-28T16:26:17.378Z,69.60
2017-06-28T16:28:44.875Z,70.60
2017-06-28T16:31:12.387Z,70.20
2017-06-28T16:33:39.887Z,70.80
2017-06-28T16:36:07.422Z,73.30
2017-06-28T16:38:34.989Z,73.50
2017-06-28T16:41:02.508Z,74.60
2017-06-28T16:43:30.075Z,74.10
2017-06-28T16:45:57.583Z,75.10
2017-06-28T16:48:25.099Z,76.20
2017-06-28T16:50:52.664Z,76.40
2017-06-28T16:53:20.191Z,75.40
2017-06-28T16:55:47.761Z,75.10
2017-06-28T16:58:15.320Z,76.30
2017-06-28T17:00:42.900Z,75.80
2017-06-28T17:03:10.407Z,75.20
2017-06-28T17:05:37.927Z,75.10
2017-06-28T17:08:05.422Z,75.40
2017-06-28T17:10:33.775Z,75.80
2017-06-28T17:13:01.332Z,75.70
2017-06-28T17:15:28.892Z,74.40
2017-06-28T17:17:56.420Z,75.10
2017-06-28T17:20:23.922Z,74.80
2017-06-28T17:22:51.500Z,74.90
2017-06-28T17:25:19.176Z,75.30
2017-06-28T17:27:47.525Z,75.00
2017-06-28T17:30:15.027Z,75.00
2017-06-28T17:32:42.527Z,74.70
2017-06-28T17:35:10.039Z,75.90
2017-06-28T17:37:37.539Z,73.40
2017-06-28T17:40:05.052Z,73.60
2017-06-28T17:42:32.554Z,73.70
2017-06-28T17:45:00.132Z,73.90
2017-06-28T17:47:27.635Z,75.50
2017-06-28T17:49:55.158Z,74.70
2017-06-28T17:52:22.654Z,75.60
2017-06-28T17:54:50.151Z,74.70
2017-06-28T17:57:17.679Z,73.20
2017-06-28T17:59:45.181Z,73.70
2017-06-28T18:02:12.764Z,75.10
2017-06-28T18:04:41.032Z,75.80
2017-06-28T18:07:08.552Z,75.80
2017-06-28T18:09:36.060Z,75.90
2017-06-28T18:12:03.596Z,75.20
2017-06-28T18:14:31.135Z,74.60
2017-06-28T18:16:58.634Z,75.10
2017-06-28T18:19:26.155Z,75.60
2017-06-28T18:21:53.721Z,76.10
2017-06-28T18:24:21.243Z,76.30
2017-06-28T18:26:48.749Z,77.20
2017-06-28T18:29:16.257Z,77.50
2017-06-28T18:31:43.844Z,78.10
2017-06-28T18:34:11.412Z,78.30
2017-06-28T18:36:38.934Z,79.10
2017-06-28T18:39:06.436Z,78.60
2017-06-28T18:41:33.962Z,79.20
2017-06-28T18:44:01.462Z,79.60
2017-06-28T18:46:28.968Z,80.90
2017-06-28T18:48:56.492Z,80.80
2017-06-28T18:51:24.767Z,80.90
2017-06-28T18:53:53.055Z,81.50
2017-06-28T18:56:20.559Z,81.30
2017-06-28T18:58:48.080Z,82.00
2017-06-28T19:01:15.647Z,82.40
2017-06-28T19:03:43.212Z,82.40
2017-06-28T19:06:10.735Z,82.40
2017-06-28T19:08:39.070Z,82.80
2017-06-28T19:11:06.596Z,82.80
2017-06-28T19:13:34.108Z,82.80
2017-06-28T19:16:01.701Z,83.40
2017-06-28T19:18:29.219Z,83.20
2017-06-28T19:20:56.725Z,83.40
2017-06-28T19:23:24.248Z,83.50
2017-06-28T19:25:51.820Z,83.60
2017-06-28T19:28:19.343Z,84.50
2017-06-28T19:30:46.911Z,84.60
2017-06-28T19:33:14.440Z,84.40
2017-06-28T19:35:41.943Z,84.50
2017-06-28T19:38:09.454Z,84.60
2017-06-28T19:40:36.995Z,84.80
2017-06-28T19:43:04.500Z,85.30
2017-06-28T19:45:32.080Z,85.50
2017-06-28T19:47:59.590Z,85.60
2017-06-28T19:50:27.112Z,85.20
2017-06-28T19:52:55.384Z,86.80
2017-06-28T19:55:22.886Z,86.70
2017-06-28T19:57:50.403Z,86.80
2017-06-28T20:00:17.911Z,86.40
2017-06-28T20:02:45.438Z,86.80
2017-06-28T20:05:12.935Z,86.80
2017-06-28T20:07:40.459Z,86.60
2017-06-28T20:10:07.963Z,86.40
2017-06-28T20:12:35.463Z,86.10
2017-06-28T20:15:02.987Z,86.10
2017-06-28T20:17:30.486Z,85.90
2017-06-28T20:19:58.014Z,86.10
2017-06-28T20:22:25.516Z,86.10
2017-06-28T20:24:53.054Z,86.00
2017-06-28T20:27:20.593Z,86.20
2017-06-28T20:29:48.100Z,85.90
2017-06-28T20:32:15.615Z,86.20
2017-06-28T20:34:43.115Z,85.90
2017-06-28T20:37:10.666Z,86.30
2017-06-28T20:39:38.171Z,85.90
2017-06-28T20:42:05.708Z,86.80
2017-06-28T20:44:33.317Z,85.80
2017-06-28T20:47:00.818Z,85.90
2017-06-28T20:49:28.339Z,85.60
2017-06-28T20:51:55.843Z,85.70
2017-06-28T20:54:23.358Z,85.80
2017-06-28T20:56:50.851Z,86.20
2017-06-28T20:59:18.377Z,86.70
2017-06-28T21:01:45.890Z,86.10
2017-06-28T21:04:13.386Z,85.90
2017-06-28T21:06:40.919Z,85.80
2017-06-28T21:09:08.419Z,86.30
2017-06-28T21:11:35.944Z,85.60
2017-06-28T21:14:04.212Z,86.20
2017-06-28T21:16:31.739Z,86.10
2017-06-28T21:18:59.244Z,85.70
2017-06-28T21:21:26.759Z,85.10
2017-06-28T21:23:54.284Z,85.30
2017-06-28T21:26:21.791Z,85.00
2017-06-28T21:28:49.308Z,85.10
2017-06-28T21:31:16.811Z,85.30
2017-06-28T21:33:44.339Z,85.50
2017-06-28T21:36:11.848Z,85.60
2017-06-28T21:38:40.119Z,85.30
2017-06-28T21:41:08.408Z,85.40
2017-06-28T21:43:35.916Z,85.40
2017-06-28T21:46:03.443Z,85.10
2017-06-28T21:48:30.955Z,84.50
2017-06-28T21:50:58.479Z,84.70
2017-06-28T21:53:25.981Z,84.80
2017-06-28T21:55:53.483Z,84.60
2017-06-28T21:58:21.002Z,84.40
2017-06-28T22:00:49.276Z,84.80
2017-06-28T22:03:16.796Z,84.70
2017-06-28T22:05:44.298Z,84.80
2017-06-28T22:08:12.592Z,85.60
2017-06-28T22:10:40.091Z,85.60
2017-06-28T22:13:07.595Z,85.90
2017-06-28T22:15:35.119Z,85.80
2017-06-28T22:18:02.619Z,85.80
2017-06-28T22:20:38.083Z,83.90
2017-06-28T22:23:05.586Z,82.80
2017-06-28T22:25:33.103Z,82.60
2017-06-28T22:28:00.606Z,83.60
2017-06-28T22:30:28.130Z,83.30
2017-06-28T22:32:55.628Z,82.20
2017-06-28T22:35:23.131Z,82.90
2017-06-28T22:37:50.654Z,82.00
2017-06-28T22:40:18.154Z,82.00
2017-06-28T22:42:45.667Z,81.80
2017-06-28T22:45:13.169Z,80.90
2017-06-28T22:47:40.694Z,79.20
2017-06-28T22:50:08.958Z,78.80
2017-06-28T22:52:36.465Z,78.80
2017-06-28T22:55:03.982Z,78.00
2017-06-28T22:57:31.485Z,77.00
2017-06-28T22:59:59.007Z,77.50
2017-06-28T23:02:26.508Z,78.00
2017-06-28T23:04:54.027Z,78.20
2017-06-28T23:07:21.531Z,78.90
2017-06-28T23:09:49.031Z,79.60
2017-06-28T23:12:17.311Z,80.60
2017-06-28T23:14:44.821Z,80.10
2017-06-28T23:17:12.344Z,80.40
2017-06-28T23:19:39.843Z,80.90
2017-06-28T23:22:07.362Z,80.90
2017-06-28T23:24:34.864Z,81.20
2017-06-28T23:27:02.367Z,81.20
2017-06-28T23:29:29.882Z,81.60
2017-06-28T23:31:57.388Z,81.80
2017-06-28T23:34:24.911Z,81.70
2017-06-28T23:36:52.411Z,82.20
2017-06-28T23:39:19.933Z,82.20
2017-06-28T23:41:47.428Z,82.30
2017-06-28T23:44:14.927Z,82.20
2017-06-28T23:46:42.443Z,82.50
2017-06-28T23:49:09.947Z,81.80
2017-06-28T23:51:37.462Z,82.90
2017-06-28T23:54:04.958Z,83.20
2017-06-28T23:56:32.482Z,84.40
2017-06-28T23:58:59.985Z,85.30
